Time;durP1;ratioP1;P1;durP2;ratioP2;P2;SDS_P1;SDS_P2;PMS_P1;PMS_P2;Temp;Humidity;BMP_temperature;BMP_pressure;BME280_temperature;BME280_humidity;BME280_pressure;Samples;Min_cycle;Max_cycle;Signal;HPM_P1;HPM_P2
2023/04/14 00:00:31;;;;;;;8.63;6.90;;;17.20;76.20;;;;;;5032869;28;20112;-69
2023/04/14 00:02:56;;;;;;;8.00;6.53;;;17.20;76.20;;;;;;5032204;28;20021;-69
2023/04/14 00:05:22;;;;;;;7.85;6.28;;;17.20;76.20;;;;;;5032944;28;20101;-69
2023/04/14 00:07:48;;;;;;;7.47;6.63;;;17.20;76.20;;;;;;5015269;28;20025;-69
2023/04/14 00:10:13;;;;;;;7.30;6.60;;;17.20;76.30;;;;;;5033126;28;20431;-69
2023/04/14 00:12:39;;;;;;;7.47;6.25;;;17.10;76.20;;;;;;5031795;28;20029;-69
2023/04/14 00:15:05;;;;;;;8.60;6.57;;;17.10;76.20;;;;;;5032960;28;20064;-69
2023/04/14 00:17:31;;;;;;;8.35;6.35;;;17.10;76.20;;;;;;5032708;28;20535;-69
2023/04/14 00:19:56;;;;;;;7.07;6.03;;;17.10;76.20;;;;;;5031398;28;20124;-69
2023/04/14 00:22:22;;;;;;;6.93;6.22;;;17.10;76.20;;;;;;5032883;28;20033;-69
2023/04/14 00:24:49;;;;;;;6.30;5.63;;;17.10;76.20;;;;;;5032687;28;20100;-69
2023/04/14 00:27:15;;;;;;;8.23;6.60;;;17.10;76.30;;;;;;5032628;28;20022;-69
2023/04/14 00:29:41;;;;;;;11.05;6.75;;;17.10;76.20;;;;;;5033083;28;20032;-69
2023/04/14 00:32:06;;;;;;;7.10;5.60;;;17.10;76.20;;;;;;5032725;28;20025;-69
2023/04/14 00:34:32;;;;;;;6.18;5.60;;;17.10;76.30;;;;;;5031750;28;20365;-69
2023/04/14 00:36:58;;;;;;;7.18;5.95;;;17.10;77.30;;;;;;5031974;28;20476;-69
2023/04/14 00:39:23;;;;;;;7.80;5.38;;;17.10;76.40;;;;;;5031544;28;20033;-69
2023/04/14 00:41:49;;;;;;;12.48;5.53;;;17.10;76.40;;;;;;5032983;28;20057;-69
2023/04/14 00:44:15;;;;;;;7.43;5.50;;;17.10;76.40;;;;;;5015518;28;20032;-69
2023/04/14 00:46:41;;;;;;;6.28;5.30;;;17.10;76.50;;;;;;5031393;28;20116;-69
2023/04/14 00:49:06;;;;;;;6.82;5.05;;;17.10;77.50;;;;;;5031687;28;20022;-69
2023/04/14 00:51:32;;;;;;;7.20;5.57;;;17.10;76.50;;;;;;5031514;28;20022;-69
2023/04/14 00:53:58;;;;;;;7.00;5.90;;;17.10;76.50;;;;;;5030928;28;20037;-69
2023/04/14 00:56:25;;;;;;;5.78;5.18;;;17.10;76.50;;;;;;5030939;28;20057;-69
2023/04/14 00:58:50;;;;;;;6.57;5.47;;;17.10;76.50;;;;;;5014987;28;20021;-69
2023/04/14 01:01:16;;;;;;;6.30;5.10;;;17.10;76.50;;;;;;5032423;28;20040;-69
2023/04/14 01:03:42;;;;;;;8.48;5.38;;;17.10;76.50;;;;;;5030950;28;20022;-69
2023/04/14 01:06:08;;;;;;;7.40;5.13;;;17.10;76.50;;;;;;5031147;28;20533;-69
2023/04/14 01:08:34;;;;;;;5.40;4.80;;;17.10;76.60;;;;;;5032208;28;20025;-69
2023/04/14 01:11:03;;;;;;;5.22;4.72;;;17.10;76.50;;;;;;5014786;28;20033;-69
2023/04/14 01:13:52;;;;;;;6.70;5.13;;;17.10;76.50;;;;;;5031048;28;20056;-69
2023/04/14 01:16:44;;;;;;;6.13;4.75;;;17.10;76.50;;;;;;5032102;28;20029;-69
2023/04/14 01:19:36;;;;;;;5.85;4.85;;;17.10;76.50;;;;;;5028966;28;20041;-69
2023/04/14 01:22:05;;;;;;;6.13;4.90;;;17.10;76.50;;;;;;5031004;28;20468;-69
2023/04/14 01:24:55;;;;;;;7.57;4.68;;;17.10;76.50;;;;;;5014466;28;20052;-69
2023/04/14 01:27:32;;;;;;;6.03;4.43;;;17.10;76.50;;;;;;5032095;28;20091;-69
2023/04/14 01:30:42;;;;;;;5.85;4.68;;;17.00;76.50;;;;;;5030976;28;20037;-69
2023/04/14 01:33:07;;;;;;;4.95;4.40;;;17.00;76.50;;;;;;5030742;28;20032;-69
2023/04/14 01:35:39;;;;;;;4.30;3.90;;;17.00;76.60;;;;;;5014397;28;20104;-69
2023/04/14 01:38:09;;;;;;;5.25;4.50;;;17.00;76.60;;;;;;5014624;28;20049;-69
2023/04/14 01:40:37;;;;;;;5.68;4.53;;;17.00;76.50;;;;;;5030874;28;20108;-69
2023/04/14 01:43:04;;;;;;;5.75;4.20;;;17.00;76.60;;;;;;5014547;28;20062;-69
2023/04/14 01:45:37;;;;;;;4.65;3.75;;;17.00;76.60;;;;;;5033723;28;20045;-69
2023/04/14 01:48:02;;;;;;;;;;;17.00;76.60;;;;;;5018428;28;20022;-69
2023/04/14 01:50:28;;;;;;;4.03;3.63;;;17.00;76.50;;;;;;5034638;28;19939;-69
2023/04/14 01:52:54;;;;;;;4.82;4.25;;;17.00;76.60;;;;;;5018307;28;20034;-69
2023/04/14 01:55:20;;;;;;;4.15;3.67;;;17.00;76.60;;;;;;5017829;28;20056;-69
2023/04/14 01:57:49;;;;;;;4.15;3.75;;;17.00;76.60;;;;;;5034055;28;20030;-69
2023/04/14 02:00:16;;;;;;;3.67;3.33;;;17.00;77.70;;;;;;5017846;28;20033;-69
2023/04/14 02:02:43;;;;;;;4.90;4.00;;;17.00;77.70;;;;;;5034064;28;20021;-69
2023/04/14 02:05:08;;;;;;;4.53;3.72;;;17.00;76.70;;;;;;5017832;28;20429;-69
2023/04/14 02:07:34;;;;;;;6.15;3.90;;;17.00;76.80;;;;;;5035336;28;20106;-69
2023/04/14 02:10:00;;;;;;;4.82;3.83;;;17.00;76.80;;;;;;5017483;28;20087;-69
2023/04/14 02:12:26;;;;;;;5.00;3.78;;;17.00;76.70;;;;;;5017836;28;20147;-69
2023/04/14 02:14:52;;;;;;;3.85;3.55;;;17.00;76.80;;;;;;5017903;28;20049;-69
2023/04/14 02:17:18;;;;;;;5.60;3.70;;;17.00;76.80;;;;;;5033887;28;20127;-69
2023/04/14 02:19:43;;;;;;;4.18;3.55;;;17.00;76.80;;;;;;5017642;28;20607;-69
2023/04/14 02:22:09;;;;;;;3.85;3.55;;;17.00;76.80;;;;;;5033982;28;20025;-69
2023/04/14 02:24:35;;;;;;;4.05;3.47;;;17.00;76.80;;;;;;5017581;28;20063;-69
2023/04/14 02:27:06;;;;;;;4.20;3.55;;;17.00;76.80;;;;;;5034018;28;20487;-69
2023/04/14 02:29:32;;;;;;;4.25;3.58;;;17.00;76.90;;;;;;5035069;28;20018;-69
2023/04/14 02:32:10;;;;;;;3.42;3.13;;;17.00;76.80;;;;;;5017190;28;20026;-69
2023/04/14 02:34:40;;;;;;;3.88;3.50;;;17.00;76.80;;;;;;5033698;28;20021;-69
2023/04/14 02:37:08;;;;;;;4.60;3.20;;;17.00;76.90;;;;;;5017763;28;20025;-70
2023/04/14 02:39:40;;;;;;;3.50;3.15;;;17.00;76.90;;;;;;5017356;28;20063;-70
2023/04/14 02:42:25;;;;;;;3.40;3.10;;;17.00;76.90;;;;;;5034775;28;20025;-70
2023/04/14 02:45:02;;;;;;;6.05;3.60;;;16.90;76.80;;;;;;5016963;28;20036;-70
2023/04/14 02:47:30;;;;;;;4.22;3.25;;;16.90;76.90;;;;;;5018247;28;20472;-70
2023/04/14 02:49:56;;;;;;;5.80;3.13;;;17.00;76.90;;;;;;5017270;28;20029;-70
2023/04/14 02:52:23;;;;;;;4.50;3.40;;;17.00;76.90;;;;;;5033528;28;20060;-70
2023/04/14 02:54:49;;;;;;;3.33;2.90;;;16.90;76.90;;;;;;5016459;28;20515;-70
2023/04/14 02:57:14;;;;;;;5.15;3.30;;;17.00;76.90;;;;;;5016914;28;20105;-70
2023/04/14 02:59:41;;;;;;;3.45;2.90;;;16.90;76.80;;;;;;5032892;28;20491;-69
2023/04/14 03:02:08;;;;;;;3.60;3.08;;;16.90;76.90;;;;;;5033283;28;20022;-69
2023/04/14 03:04:34;;;;;;;4.13;3.13;;;16.90;77.00;;;;;;5033076;28;20021;-69
2023/04/14 03:07:00;;;;;;;3.92;3.10;;;16.90;77.00;;;;;;5033038;28;20018;-69
2023/04/14 03:09:26;;;;;;;4.35;3.00;;;16.90;77.00;;;;;;5016624;28;20033;-69
2023/04/14 03:11:53;;;;;;;3.20;2.90;;;16.90;77.00;;;;;;5016420;28;20108;-69
2023/04/14 03:14:19;;;;;;;3.17;2.90;;;16.90;77.00;;;;;;5016555;28;20048;-69
2023/04/14 03:16:45;;;;;;;5.32;2.78;;;16.90;77.00;;;;;;5016464;28;20480;-69
2023/04/14 03:19:11;;;;;;;2.80;2.60;;;16.90;77.00;;;;;;5016534;28;20090;-69
2023/04/14 03:21:37;;;;;;;3.03;2.70;;;16.90;77.00;;;;;;5032934;28;20064;-69
2023/04/14 03:24:03;;;;;;;3.30;3.00;;;16.90;77.00;;;;;;5034017;28;20037;-69
2023/04/14 03:26:29;;;;;;;4.20;2.70;;;16.90;76.90;;;;;;5016463;28;20372;-69
2023/04/14 03:28:55;;;;;;;3.67;2.72;;;16.90;77.00;;;;;;5032536;28;20029;-69
2023/04/14 03:31:21;;;;;;;4.07;2.55;;;16.90;76.90;;;;;;5016441;28;20037;-69
2023/04/14 03:33:47;;;;;;;2.80;2.17;;;17.00;77.00;;;;;;5015980;28;20058;-69
2023/04/14 03:36:13;;;;;;;2.63;2.42;;;16.90;77.00;;;;;;5016353;28;20026;-69
2023/04/14 03:38:39;;;;;;;3.42;2.95;;;16.90;77.00;;;;;;5032439;28;20033;-69
2023/04/14 03:41:06;;;;;;;2.72;2.53;;;16.90;77.10;;;;;;5016033;28;20044;-69
2023/04/14 03:43:32;;;;;;;3.83;2.28;;;16.90;77.00;;;;;;5015911;28;20487;-69
2023/04/14 03:45:58;;;;;;;3.78;2.38;;;16.90;77.10;;;;;;5015844;28;20550;-69
2023/04/14 03:48:25;;;;;;;2.88;2.45;;;16.90;77.00;;;;;;5033554;28;20022;-69
2023/04/14 03:50:51;;;;;;;3.25;2.67;;;16.90;77.00;;;;;;5032279;28;20040;-69
2023/04/14 03:53:17;;;;;;;2.80;2.55;;;16.90;77.10;;;;;;5032127;28;20091;-69
2023/04/14 03:55:44;;;;;;;2.30;2.10;;;16.90;77.00;;;;;;5015766;28;20385;-69
2023/04/14 03:58:13;;;;;;;2.78;2.30;;;16.90;77.10;;;;;;5015625;28;20025;-69
2023/04/14 04:00:40;;;;;;;3.40;2.55;;;16.90;77.10;;;;;;5031890;28;20061;-69
2023/04/14 04:03:06;;;;;;;2.67;2.10;;;16.90;77.10;;;;;;5032093;28;20022;-69
2023/04/14 04:05:32;;;;;;;2.20;2.00;;;16.90;77.10;;;;;;5015495;28;20430;-69
2023/04/14 04:08:02;;;;;;;2.63;2.42;;;16.90;77.10;;;;;;5030860;28;20369;-69
2023/04/14 04:10:32;;;;;;;2.97;2.17;;;16.90;77.00;;;;;;5031957;28;20029;-69
2023/04/14 04:12:58;;;;;;;2.78;2.05;;;16.90;77.10;;;;;;5031786;28;20490;-69
2023/04/14 04:15:25;;;;;;;2.45;2.05;;;16.90;77.10;;;;;;5015342;28;20371;-69
2023/04/14 04:17:51;;;;;;;2.78;2.22;;;16.90;77.10;;;;;;5031843;28;20057;-69
2023/04/14 04:20:17;;;;;;;2.47;2.28;;;16.90;77.10;;;;;;5015436;28;20056;-69
2023/04/14 04:22:43;;;;;;;2.35;1.95;;;16.90;77.10;;;;;;5015360;28;20120;-69
2023/04/14 04:25:09;;;;;;;2.55;1.95;;;16.90;77.10;;;;;;5015119;28;20713;-69
2023/04/14 04:27:34;;;;;;;3.20;2.40;;;16.90;77.10;;;;;;5015252;28;20056;-69
2023/04/14 04:30:00;;;;;;;2.38;1.85;;;16.90;77.10;;;;;;5032760;28;20033;-69
2023/04/14 04:32:26;;;;;;;2.22;1.90;;;16.90;77.10;;;;;;5032882;28;20100;-69
2023/04/14 04:34:52;;;;;;;2.00;1.83;;;16.90;77.10;;;;;;5032559;28;20025;-69
2023/04/14 04:37:20;;;;;;;2.13;2.03;;;16.90;77.10;;;;;;5015099;28;20025;-69
2023/04/14 04:39:47;;;;;;;2.08;1.80;;;16.90;77.10;;;;;;5031402;28;20025;-69
2023/04/14 04:42:13;;;;;;;2.22;2.00;;;16.90;77.10;;;;;;5031347;28;20017;-69
2023/04/14 04:44:39;;;;;;;2.17;1.80;;;16.90;77.20;;;;;;5031444;28;20399;-69
2023/04/14 04:47:04;;;;;;;2.72;2.10;;;16.90;77.10;;;;;;5032588;28;20055;-69
2023/04/14 04:49:30;;;;;;;2.13;1.92;;;16.90;77.20;;;;;;5014956;28;20061;-69
2023/04/14 04:51:55;;;;;;;1.95;1.75;;;16.90;77.20;;;;;;5031231;28;20018;-69
2023/04/14 04:54:21;;;;;;;2.10;1.90;;;16.90;77.20;;;;;;5032337;28;20060;-69
2023/04/14 04:56:47;;;;;;;2.05;1.85;;;16.90;77.20;;;;;;5031047;28;20068;-69
2023/04/14 04:59:12;;;;;;;2.42;2.00;;;16.90;77.20;;;;;;5031040;28;20017;-69
2023/04/14 05:01:38;;;;;;;2.88;2.10;;;16.90;77.20;;;;;;5032272;28;20045;-69
2023/04/14 05:04:04;;;;;;;2.35;1.80;;;16.90;77.20;;;;;;5032189;28;20026;-69
2023/04/14 05:06:30;;;;;;;2.65;2.10;;;16.90;77.20;;;;;;5032330;28;20021;-69
2023/04/14 05:08:56;;;;;;;1.85;1.70;;;16.90;77.30;;;;;;5030831;28;20056;-69
2023/04/14 05:11:22;;;;;;;2.38;2.00;;;16.90;77.20;;;;;;5014566;28;20029;-69
2023/04/14 05:13:47;;;;;;;3.00;1.92;;;16.90;77.20;;;;;;5032438;28;20055;-69
2023/04/14 05:16:13;;;;;;;2.28;2.08;;;16.90;77.30;;;;;;5014462;28;20121;-69
2023/04/14 05:18:39;;;;;;;2.13;1.92;;;16.90;77.20;;;;;;5032853;28;20068;-69
2023/04/14 05:21:06;;;;;;;1.88;1.65;;;16.90;77.30;;;;;;5035055;28;20082;-69
2023/04/14 05:23:32;;;;;;;1.77;1.67;;;16.90;77.30;;;;;;5018984;28;20021;-69
2023/04/14 05:25:58;;;;;;;1.73;1.63;;;16.90;77.30;;;;;;5018216;28;20030;-69
2023/04/14 05:28:24;;;;;;;1.92;1.67;;;16.80;77.30;;;;;;5036225;28;20014;-69
2023/04/14 05:30:50;;;;;;;2.00;1.77;;;16.90;77.40;;;;;;5036178;28;20491;-69
2023/04/14 05:33:16;;;;;;;1.95;1.73;;;16.80;77.20;;;;;;5034923;28;20028;-69
2023/04/14 05:35:43;;;;;;;1.75;1.50;;;16.90;77.30;;;;;;5035908;28;20393;-69
2023/04/14 05:38:09;;;;;;;1.80;1.70;;;16.90;77.40;;;;;;5034898;28;20020;-69
2023/04/14 05:40:35;;;;;;;1.60;1.40;;;16.80;77.40;;;;;;5035645;28;20069;-69
2023/04/14 05:43:01;;;;;;;1.60;1.50;;;16.90;77.40;;;;;;5035884;28;20065;-69
2023/04/14 05:45:27;;;;;;;1.88;1.77;;;16.90;77.40;;;;;;5034533;28;20029;-69
2023/04/14 05:47:52;;;;;;;1.73;1.63;;;16.90;77.50;;;;;;5034544;28;20048;-69
2023/04/14 05:50:18;;;;;;;1.92;1.70;;;16.80;77.40;;;;;;5035924;28;20480;-69
2023/04/14 05:52:43;;;;;;;1.83;1.50;;;16.90;77.50;;;;;;5018203;28;20100;-69
2023/04/14 05:55:09;;;;;;;1.60;1.50;;;16.90;77.50;;;;;;5035257;28;20107;-69
2023/04/14 05:57:35;;;;;;;1.85;1.70;;;16.90;77.50;;;;;;5035587;28;20038;-69
2023/04/14 06:00:01;;;;;;;3.75;1.42;;;16.90;77.50;;;;;;5034059;28;20108;-69
2023/04/14 06:02:27;;;;;;;1.55;1.40;;;16.90;77.50;;;;;;5034401;28;20116;-69
2023/04/14 06:04:52;;;;;;;1.92;1.48;;;16.90;77.60;;;;;;5035705;28;20021;-69
2023/04/14 06:07:18;;;;;;;2.67;1.50;;;16.90;77.50;;;;;;5035286;28;20044;-69
2023/04/14 06:09:45;;;;;;;2.10;1.50;;;16.90;77.50;;;;;;5035086;28;20022;-68
2023/04/14 06:12:12;;;;;;;1.60;1.50;;;16.90;77.50;;;;;;5017650;28;20025;-68
2023/04/14 06:14:38;;;;;;;2.35;1.73;;;16.90;77.50;;;;;;5033391;28;20017;-68
2023/04/14 06:17:04;;;;;;;1.08;1.05;;;16.90;77.10;;;;;;5032095;28;20390;-68
2023/04/14 06:19:29;;;;;;;1.20;1.10;;;16.90;76.20;;;;;;5032076;28;20095;-68
2023/04/14 06:21:55;;;;;;;2.75;1.30;;;16.90;76.10;;;;;;5031750;28;20021;-68
2023/04/14 06:24:21;;;;;;;1.92;1.15;;;16.90;76.00;;;;;;5033596;28;20018;-68
2023/04/14 06:26:46;;;;;;;1.90;1.30;;;16.80;75.90;;;;;;5033323;28;20068;-68
2023/04/14 06:29:13;;;;;;;2.13;1.00;;;16.80;75.90;;;;;;5031668;28;20018;-66
2023/04/14 06:31:38;;;;;;;1.35;1.00;;;16.80;75.70;;;;;;5031210;28;20025;-67
2023/04/14 06:34:04;;;;;;;1.10;1.00;;;16.80;75.80;;;;;;5031672;28;20056;-66
2023/04/14 06:36:30;;;;;;;3.15;1.40;;;16.90;75.80;;;;;;5031354;28;20022;-67
2023/04/14 06:38:56;;;;;;;1.20;1.00;;;16.80;75.80;;;;;;5031774;28;20400;-67
2023/04/14 06:41:22;;;;;;;1.45;1.13;;;16.80;75.80;;;;;;5032861;28;20494;-67
2023/04/14 06:43:48;;;;;;;2.60;0.90;;;16.80;75.70;;;;;;5031507;28;20013;-66
2023/04/14 06:46:13;;;;;;;0.85;0.80;;;16.80;75.70;;;;;;5031001;28;20052;-67
2023/04/14 06:48:39;;;;;;;1.55;1.00;;;16.80;75.60;;;;;;5034786;28;20022;-67
2023/04/14 06:51:06;;;;;;;3.72;1.00;;;16.80;75.60;;;;;;5033157;28;20033;-67
2023/04/14 06:53:32;;;;;;;5.65;1.60;;;16.80;75.60;;;;;;5034291;28;20535;-67
2023/04/14 06:56:00;;;;;;;7.22;1.40;;;16.80;75.50;;;;;;5033098;28;20035;-67
2023/04/14 06:58:29;;;;;;;4.85;1.20;;;16.80;75.60;;;;;;5034159;28;20036;-67
2023/04/14 07:00:56;;;;;;;2.15;1.00;;;16.80;75.60;;;;;;5014483;28;20041;-67
2023/04/14 07:03:21;;;;;;;5.07;1.10;;;16.80;75.60;;;;;;5013189;28;20018;-67
2023/04/14 07:05:47;;;;;;;2.08;1.48;;;16.80;75.60;;;;;;5013095;28;20030;-67
2023/04/14 07:08:13;;;;;;;2.80;1.00;;;16.80;75.60;;;;;;5024637;28;20016;-67
2023/04/14 07:10:38;;;;;;;3.22;1.13;;;16.80;75.60;;;;;;5034286;28;20100;-67
2023/04/14 07:13:04;;;;;;;4.18;1.05;;;16.80;75.50;;;;;;5033078;28;20104;-67
2023/04/14 07:15:30;;;;;;;3.70;1.20;;;16.80;75.50;;;;;;5032977;28;20026;-67
2023/04/14 07:17:55;;;;;;;2.78;1.30;;;16.80;75.50;;;;;;5033964;28;20108;-67
2023/04/14 07:20:21;;;;;;;4.53;1.08;;;16.80;75.40;;;;;;5033846;28;20025;-67
2023/04/14 07:22:47;;;;;;;2.60;1.20;;;16.80;75.30;;;;;;5032848;28;20072;-67
2023/04/14 07:25:13;;;;;;;2.42;1.25;;;16.80;75.20;;;;;;5032695;28;20026;-67
2023/04/14 07:27:38;;;;;;;3.70;0.98;;;16.80;75.20;;;;;;5033937;28;20385;-67
2023/04/14 07:30:05;;;;;;;4.03;1.00;;;16.80;75.20;;;;;;5032514;28;20040;-67
2023/04/14 07:32:31;;;;;;;4.20;1.00;;;16.80;75.10;;;;;;5033947;28;20025;-67
2023/04/14 07:34:57;;;;;;;2.92;1.08;;;16.80;75.20;;;;;;5033615;28;20021;-67
2023/04/14 07:37:23;;;;;;;3.35;1.00;;;16.80;75.00;;;;;;5033740;28;20510;-67
2023/04/14 07:39:48;;;;;;;3.45;1.30;;;16.80;75.00;;;;;;5033680;28;20044;-67
2023/04/14 07:42:14;;;;;;;2.97;1.00;;;16.80;75.90;;;;;;5033346;28;20018;-67
2023/04/14 07:44:40;;;;;;;2.63;1.00;;;16.70;74.80;;;;;;5032491;28;20032;-67
2023/04/14 07:47:06;;;;;;;3.25;1.17;;;16.80;74.90;;;;;;5032338;28;20092;-67
2023/04/14 07:49:31;;;;;;;3.47;1.08;;;16.80;74.70;;;;;;5033538;28;20025;-67
2023/04/14 07:51:57;;;;;;;2.83;1.10;;;16.80;74.70;;;;;;5033437;28;20396;-67
2023/04/14 07:54:23;;;;;;;4.15;1.35;;;16.80;74.70;;;;;;5033250;28;20050;-67
2023/04/14 07:56:48;;;;;;;3.58;1.25;;;16.70;74.60;;;;;;5032304;28;20030;-67
2023/04/14 07:59:14;;;;;;;3.13;1.02;;;16.70;74.60;;;;;;5032908;28;20029;-67
2023/04/14 08:01:40;;;;;;;1.83;1.10;;;16.70;74.60;;;;;;5032164;28;20036;-67
2023/04/14 08:04:06;;;;;;;3.83;1.00;;;16.80;74.60;;;;;;5031848;28;20049;-67
2023/04/14 08:06:31;;;;;;;4.57;1.50;;;16.70;74.40;;;;;;5031834;28;20476;-67
2023/04/14 08:08:57;;;;;;;2.25;0.93;;;16.70;74.40;;;;;;5031999;28;20051;-67
2023/04/14 08:11:23;;;;;;;1.98;1.00;;;16.70;74.40;;;;;;5015791;28;20033;-67
2023/04/14 08:13:49;;;;;;;2.35;1.10;;;16.70;74.40;;;;;;5033154;28;20514;-67
2023/04/14 08:16:15;;;;;;;4.32;1.40;;;16.70;74.30;;;;;;5033055;28;20391;-67
2023/04/14 08:18:41;;;;;;;2.60;0.98;;;16.70;74.30;;;;;;5031829;28;20029;-67
2023/04/14 08:21:07;;;;;;;3.50;1.20;;;16.70;74.30;;;;;;5032813;28;20021;-67
2023/04/14 08:23:33;;;;;;;3.28;1.08;;;16.70;74.20;;;;;;5032996;28;20597;-67
2023/04/14 08:25:58;;;;;;;2.58;1.00;;;16.70;74.20;;;;;;5032906;28;20565;-67
2023/04/14 08:28:24;;;;;;;4.43;1.42;;;16.70;74.20;;;;;;5032843;28;20025;-67
2023/04/14 08:30:49;;;;;;;2.10;0.80;;;16.80;74.20;;;;;;5031689;28;20144;-67
2023/04/14 08:33:15;;;;;;;4.00;1.00;;;16.70;74.10;;;;;;5032462;28;20488;-67
2023/04/14 08:35:41;;;;;;;1.85;1.10;;;16.70;74.20;;;;;;5031676;28;20030;-67
2023/04/14 08:38:07;;;;;;;2.55;1.10;;;16.70;74.20;;;;;;5031377;28;20152;-67
2023/04/14 08:40:37;;;;;;;2.33;0.90;;;16.70;74.10;;;;;;5032656;28;20072;-67
2023/04/14 08:43:03;;;;;;;3.83;0.95;;;16.70;74.10;;;;;;5032643;28;20420;-67
2023/04/14 08:45:29;;;;;;;2.22;0.93;;;16.70;74.10;;;;;;5032424;28;20052;-67
2023/04/14 08:47:54;;;;;;;3.45;0.85;;;16.70;74.20;;;;;;5031283;28;20017;-67
2023/04/14 08:50:21;;;;;;;3.42;1.25;;;16.70;74.10;;;;;;5014902;28;20480;-67
2023/04/14 08:52:47;;;;;;;3.25;1.60;;;16.70;74.10;;;;;;5030864;28;20068;-67
2023/04/14 08:55:13;;;;;;;2.88;0.77;;;16.70;74.10;;;;;;5032325;28;20480;-67
2023/04/14 08:57:38;;;;;;;2.75;1.20;;;16.70;74.00;;;;;;5014822;28;20025;-67
2023/04/14 09:00:05;;;;;;;4.43;1.15;;;16.70;74.00;;;;;;5011232;28;20034;-67
2023/04/14 09:02:33;;;;;;;2.03;1.08;;;16.70;74.00;;;;;;5011321;28;20021;-67
2023/04/14 09:04:59;;;;;;;2.38;1.00;;;16.70;74.00;;;;;;4995438;28;20017;-67
2023/04/14 09:07:25;;;;;;;2.95;1.00;;;16.70;74.00;;;;;;5016162;28;20009;-67
2023/04/14 09:09:51;;;;;;;3.10;1.40;;;16.70;74.00;;;;;;5014698;28;20526;-67
2023/04/14 09:12:17;;;;;;;2.50;1.00;;;16.70;74.00;;;;;;5032254;28;20021;-67
2023/04/14 09:14:45;;;;;;;1.50;0.80;;;16.70;74.00;;;;;;5032148;28;20029;-67
2023/04/14 09:17:11;;;;;;;3.10;1.05;;;16.70;74.00;;;;;;5030759;28;20040;-67
2023/04/14 09:19:37;;;;;;;3.80;1.05;;;16.70;73.90;;;;;;5014828;28;20018;-67
2023/04/14 09:22:03;;;;;;;2.90;1.10;;;16.70;73.90;;;;;;5030950;28;20079;-67
2023/04/14 09:24:32;;;;;;;2.35;1.10;;;16.70;73.90;;;;;;5030968;28;20381;-67
2023/04/14 09:27:02;;;;;;;2.35;1.00;;;16.70;73.80;;;;;;5015224;28;20032;-67
2023/04/14 09:29:28;;;;;;;2.35;1.23;;;16.70;73.90;;;;;;5031931;28;20017;-67
2023/04/14 09:31:54;;;;;;;3.25;1.30;;;16.70;73.90;;;;;;5030864;28;20561;-67
2023/04/14 09:34:20;;;;;;;2.05;1.13;;;16.70;73.80;;;;;;5032120;28;20029;-67
2023/04/14 09:37:05;;;;;;;2.67;1.10;;;16.70;74.80;;;;;;5014398;28;20021;-67
2023/04/14 09:39:31;;;;;;;2.20;1.05;;;16.70;73.90;;;;;;5032163;28;20026;-67
2023/04/14 09:41:58;;;;;;;3.22;1.00;;;16.70;73.80;;;;;;5032025;28;20427;-67
2023/04/14 09:44:24;;;;;;;3.72;1.20;;;16.70;73.80;;;;;;5030570;28;20484;-67
2023/04/14 09:46:56;;;;;;;6.38;1.35;;;16.70;73.80;;;;;;5031899;28;20037;-67
2023/04/14 09:49:23;;;;;;;4.55;1.05;;;16.70;73.80;;;;;;5030812;28;20026;-67
2023/04/14 09:51:48;;;;;;;3.08;0.93;;;16.70;73.80;;;;;;5030711;28;20108;-67
2023/04/14 09:54:23;;;;;;;2.42;0.85;;;16.70;73.80;;;;;;5030641;28;20179;-67
2023/04/14 09:56:49;;;;;;;1.95;1.08;;;16.70;73.70;;;;;;5030780;28;20458;-67
2023/04/14 09:59:14;;;;;;;3.22;0.98;;;16.70;73.70;;;;;;5031688;28;20152;-67
2023/04/14 10:01:41;;;;;;;2.88;0.88;;;16.70;73.70;;;;;;5031517;28;20034;-67
2023/04/14 10:04:22;;;;;;;2.20;0.90;;;16.70;73.70;;;;;;5030617;28;20475;-67
2023/04/14 10:06:48;;;;;;;2.13;1.08;;;16.70;73.70;;;;;;5034153;28;20029;-67
2023/04/14 10:09:23;;;;;;;2.33;0.90;;;16.60;74.70;;;;;;5034232;28;20018;-67
2023/04/14 10:12:12;;;;;;;3.63;1.00;;;16.70;73.70;;;;;;5034214;28;20033;-67
2023/04/14 10:14:42;;;;;;;3.28;1.00;;;16.70;73.60;;;;;;5035272;28;20025;-67
2023/04/14 10:17:08;;;;;;;2.95;1.20;;;16.60;73.60;;;;;;5018106;28;20021;-67
2023/04/14 10:19:36;;;;;;;4.53;1.30;;;16.70;73.70;;;;;;5017692;28;20024;-67
2023/04/14 10:22:03;;;;;;;2.30;0.98;;;16.60;73.50;;;;;;5033929;28;20087;-67
2023/04/14 10:24:29;;;;;;;2.58;1.08;;;16.70;73.60;;;;;;5017505;28;20018;-67
2023/04/14 10:26:55;;;;;;;2.95;0.80;;;16.70;73.60;;;;;;5034002;28;20029;-67
2023/04/14 10:29:20;;;;;;;1.67;0.82;;;16.60;73.50;;;;;;5017310;28;20025;-67
2023/04/14 10:31:48;;;;;;;2.30;1.00;;;16.60;73.60;;;;;;5033942;28;20026;-67
2023/04/14 10:34:17;;;;;;;2.75;1.00;;;16.70;73.60;;;;;;5000968;28;20480;-67
2023/04/14 10:36:42;;;;;;;2.25;0.93;;;16.60;73.50;;;;;;5034842;28;20060;-67
2023/04/14 10:39:10;;;;;;;3.42;1.42;;;16.70;73.60;;;;;;5017419;28;20083;-67
2023/04/14 10:41:41;;;;;;;5.47;1.30;;;16.60;73.50;;;;;;5033675;28;20025;-67
2023/04/14 10:44:21;;;;;;;3.72;1.00;;;16.60;73.40;;;;;;5034507;28;20026;-67
2023/04/14 10:46:47;;;;;;;3.92;0.85;;;16.70;73.40;;;;;;5033525;28;20021;-67
2023/04/14 10:49:13;;;;;;;2.55;1.00;;;16.60;73.40;;;;;;5017351;28;20017;-67
2023/04/14 10:51:39;;;;;;;0.88;0.65;;;16.70;73.50;;;;;;5033492;28;20026;-67
2023/04/14 10:54:13;;;;;;;2.92;1.23;;;16.70;73.50;;;;;;5033294;28;20057;-67
2023/04/14 10:56:39;;;;;;;3.28;1.02;;;16.60;73.40;;;;;;5033408;28;20029;-67
2023/04/14 10:59:05;;;;;;;2.80;1.00;;;16.70;73.50;;;;;;5034131;28;20029;-67
2023/04/14 11:01:33;;;;;;;4.28;1.23;;;16.60;73.40;;;;;;5033016;28;20087;-67
2023/04/14 11:04:16;;;;;;;3.53;1.13;;;16.60;73.40;;;;;;5033343;28;20013;-67
2023/04/14 11:06:48;;;;;;;3.38;1.15;;;16.60;73.40;;;;;;5033020;28;20475;-67
2023/04/14 11:09:33;;;;;;;2.87;1.00;;;16.60;73.40;;;;;;5034539;28;20456;-67
2023/04/14 11:12:25;;;;;;;3.05;1.40;;;16.60;73.40;;;;;;5032940;28;20032;-67
2023/04/14 11:14:55;;;;;;;3.33;1.02;;;16.60;73.30;;;;;;5033355;28;20029;-67
2023/04/14 11:17:21;;;;;;;3.08;1.13;;;16.60;73.30;;;;;;5032747;28;20018;-67
2023/04/14 11:19:47;;;;;;;3.17;1.20;;;16.60;73.30;;;;;;5032945;28;20071;-67
2023/04/14 11:22:12;;;;;;;3.90;1.05;;;16.60;73.30;;;;;;5033199;28;20021;-67
2023/04/14 11:24:38;;;;;;;2.90;1.10;;;16.60;73.30;;;;;;5034078;28;20025;-67
2023/04/14 11:27:04;;;;;;;5.70;1.13;;;16.60;73.30;;;;;;5032653;28;20017;-67
2023/04/14 11:29:30;;;;;;;3.03;1.10;;;16.60;73.20;;;;;;5016178;28;20357;-67
2023/04/14 11:32:05;;;;;;;3.85;0.93;;;16.60;73.30;;;;;;5032763;28;20036;-67
2023/04/14 11:34:32;;;;;;;2.65;1.10;;;16.60;73.20;;;;;;5033851;28;20021;-67
2023/04/14 11:37:00;;;;;;;2.75;0.90;;;16.60;73.20;;;;;;5032634;28;20030;-67
2023/04/14 11:39:27;;;;;;;2.38;1.00;;;16.60;73.20;;;;;;5032588;28;20037;-67
2023/04/14 11:41:54;;;;;;;3.60;0.90;;;16.60;73.20;;;;;;5032196;28;20109;-67
2023/04/14 11:44:21;;;;;;;3.55;0.98;;;16.60;73.20;;;;;;5032622;28;20017;-67
2023/04/14 11:46:47;;;;;;;4.82;2.05;;;16.60;73.20;;;;;;5032260;28;20108;-67
2023/04/14 11:49:12;;;;;;;5.10;1.25;;;16.60;73.20;;;;;;5015863;28;20109;-67
2023/04/14 11:51:39;;;;;;;3.75;1.30;;;16.70;73.20;;;;;;5033605;28;20026;-67
2023/04/14 11:54:05;;;;;;;2.72;1.08;;;16.60;73.10;;;;;;5032158;28;20124;-67
2023/04/14 11:56:31;;;;;;;3.50;1.38;;;16.60;73.20;;;;;;5033318;28;20029;-67
2023/04/14 11:59:00;;;;;;;1.85;0.93;;;16.60;74.10;;;;;;5031977;28;20033;-67
2023/04/14 12:01:27;;;;;;;3.53;1.17;;;16.60;74.20;;;;;;5032066;28;20038;-67
2023/04/14 12:03:52;;;;;;;3.40;0.85;;;16.60;73.20;;;;;;5033253;28;20033;-67
2023/04/14 12:06:18;;;;;;;3.83;1.00;;;16.70;73.20;;;;;;5032395;28;20021;-67
2023/04/14 12:08:49;;;;;;;2.85;1.00;;;16.60;73.20;;;;;;5032835;28;20030;-67
2023/04/14 12:11:15;;;;;;;3.97;1.00;;;16.60;73.10;;;;;;5031962;28;20022;-67
2023/04/14 12:13:41;;;;;;;2.95;0.88;;;16.60;73.10;;;;;;5031909;28;20063;-67
2023/04/14 12:16:07;;;;;;;2.95;1.08;;;16.60;73.20;;;;;;5033267;28;20026;-67
2023/04/14 12:18:32;;;;;;;2.38;0.90;;;16.60;73.20;;;;;;5031739;28;20033;-67
2023/04/14 12:21:02;;;;;;;4.88;1.02;;;16.60;73.20;;;;;;5015286;28;20116;-67
2023/04/14 12:23:28;;;;;;;2.92;0.90;;;16.60;73.20;;;;;;5031814;28;20025;-67
2023/04/14 12:25:54;;;;;;;2.78;1.10;;;16.60;73.20;;;;;;5032705;28;20542;-67
2023/04/14 12:28:29;;;;;;;3.97;1.23;;;16.60;73.10;;;;;;5032218;28;20029;-67
2023/04/14 12:31:03;;;;;;;2.83;1.20;;;16.60;73.10;;;;;;5015779;28;20021;-67
2023/04/14 12:33:29;;;;;;;3.15;1.15;;;16.60;73.00;;;;;;5032703;28;20079;-67
2023/04/14 12:36:10;;;;;;;3.60;1.10;;;16.60;73.00;;;;;;5031726;28;20028;-67
2023/04/14 12:38:36;;;;;;;1.77;0.70;;;16.60;73.00;;;;;;5031374;28;20480;-67
2023/04/14 12:41:02;;;;;;;2.80;0.93;;;16.60;73.00;;;;;;5031389;28;20041;-67
2023/04/14 12:43:28;;;;;;;3.58;1.20;;;16.60;72.90;;;;;;5031437;28;20491;-67
2023/04/14 12:45:54;;;;;;;2.17;0.90;;;16.60;72.80;;;;;;5014945;28;20029;-67
2023/04/14 12:48:21;;;;;;;2.97;1.20;;;16.70;72.90;;;;;;5031529;28;20442;-67